Time;durP1;ratioP1;P1;durP2;ratioP2;P2;SDS_P1;SDS_P2;PMS_P1;PMS_P2;Temp;Humidity;BMP_temperature;BMP_pressure;BME280_temperature;BME280_humidity;BME280_pressure;Samples;Min_cycle;Max_cycle;Signal;HPM_P1;HPM_P2
2023/07/05 00:00:55;;;;;;;20.20;14.70;;;;;;;15.67;100.00;100356.81;5011594;28;20034;-75
2023/07/05 00:03:21;;;;;;;21.95;15.48;;;;;;;15.68;100.00;100348.06;5011743;28;20049;-76
2023/07/05 00:05:47;;;;;;;20.90;14.88;;;;;;;15.64;100.00;100341.59;5012173;28;20385;-76
2023/07/05 00:08:12;;;;;;;20.92;15.55;;;;;;;15.68;100.00;100345.28;5011837;28;20113;-77
2023/07/05 00:10:37;;;;;;;21.15;14.80;;;;;;;15.67;100.00;100337.28;5011774;28;20160;-76
2023/07/05 00:13:03;;;;;;;19.30;13.88;;;;;;;15.64;100.00;100322.06;5011769;28;20394;-77
2023/07/05 00:15:30;;;;;;;20.80;13.75;;;;;;;15.60;100.00;100308.03;5011670;28;20061;-75
2023/07/05 00:17:57;;;;;;;20.27;14.43;;;;;;;15.57;100.00;100297.59;5011696;28;20478;-76
2023/07/05 00:20:23;;;;;;;19.25;13.20;;;;;;;15.55;100.00;100285.16;5008939;28;20046;-75
2023/07/05 00:22:48;;;;;;;20.55;14.20;;;;;;;15.57;100.00;100277.28;4990786;28;20034;-74
2023/07/05 00:25:14;;;;;;;20.52;13.45;;;;;;;15.52;100.00;100275.53;4991646;28;20041;-73
2023/07/05 00:27:39;;;;;;;20.33;13.60;;;;;;;15.53;100.00;100276.34;4993237;28;20431;-74
2023/07/05 00:30:05;;;;;;;20.15;13.23;;;;;;;15.51;100.00;100256.38;4995363;28;20129;-77
2023/07/05 00:32:30;;;;;;;19.77;13.18;;;;;;;15.52;100.00;100242.09;4995312;28;20022;-76
2023/07/05 00:34:56;;;;;;;19.30;13.70;;;;;;;15.51;100.00;100237.69;4995554;28;20042;-77
2023/07/05 00:37:21;;;;;;;19.60;13.55;;;;;;;15.51;100.00;100234.88;4995568;28;20032;-75
2023/07/05 00:39:46;;;;;;;19.45;12.68;;;;;;;15.51;100.00;100225.69;4995513;28;20042;-76
2023/07/05 00:42:12;;;;;;;18.40;12.63;;;;;;;15.52;100.00;100217.00;4994114;28;20034;-75
2023/07/05 00:44:37;;;;;;;19.33;12.85;;;;;;;15.50;100.00;100210.13;4993981;28;20151;-77
2023/07/05 00:47:06;;;;;;;18.20;12.60;;;;;;;15.48;100.00;100187.41;4993873;28;20069;-76
2023/07/05 00:49:34;;;;;;;20.15;12.90;;;;;;;15.44;100.00;100163.03;4995503;28;20038;-77
2023/07/05 00:52:04;;;;;;;18.65;12.70;;;;;;;15.45;100.00;100166.59;4995190;28;20026;-75
2023/07/05 00:54:34;;;;;;;19.55;12.80;;;;;;;15.39;100.00;100190.34;4995115;28;20031;-75
2023/07/05 00:57:02;;;;;;;19.00;11.85;;;;;;;15.43;100.00;100202.41;4994997;28;20038;-76
2023/07/05 00:59:32;;;;;;;18.63;11.70;;;;;;;15.36;100.00;100199.41;4993485;28;20449;-76
2023/07/05 01:01:58;;;;;;;18.35;12.18;;;;;;;15.35;100.00;100189.44;4994897;28;20065;-75
2023/07/05 01:04:23;;;;;;;17.98;12.07;;;;;;;15.33;100.00;100184.19;4994890;28;20497;-75
2023/07/05 01:06:49;;;;;;;18.27;12.50;;;;;;;15.30;100.00;100171.00;4994655;28;20072;-75
2023/07/05 01:09:14;;;;;;;20.00;12.60;;;;;;;15.31;100.00;100172.59;5000848;28;20041;-76
2023/07/05 01:11:49;;;;;;;20.10;12.90;;;;;;;15.31;100.00;100174.59;5014293;28;20500;-75
2023/07/05 01:14:26;;;;;;;18.70;12.38;;;;;;;15.24;100.00;100159.28;5014135;28;20030;-75
2023/07/05 01:17:07;;;;;;;19.10;12.10;;;;;;;15.29;100.00;100172.97;5014090;28;20026;-75
2023/07/05 01:19:51;;;;;;;20.40;12.70;;;;;;;15.29;100.00;100172.97;5013881;28;20034;-76
2023/07/05 01:22:46;;;;;;;17.42;11.75;;;;;;;15.27;100.00;100158.56;5014332;28;20022;-76
2023/07/05 01:25:49;;;;;;;19.45;12.60;;;;;;;15.32;100.00;100165.84;5013939;28;20083;-74
2023/07/05 01:28:56;;;;;;;19.45;12.65;;;;;;;15.32;100.00;100165.84;5014150;28;20112;-74
2023/07/05 01:31:40;;;;;;;19.45;13.07;;;;;;;15.31;100.00;100155.88;4991873;28;20058;-76
2023/07/05 01:34:14;;;;;;;18.70;12.60;;;;;;;15.34;100.00;100154.38;4991779;28;20034;-77
2023/07/05 01:36:41;;;;;;;18.63;12.55;;;;;;;15.33;100.00;100147.97;4980436;28;20039;-76
2023/07/05 01:39:06;;;;;;;19.15;12.85;;;;;;;15.35;100.00;100151.22;4978076;28;20058;-76
2023/07/05 01:41:31;;;;;;;19.50;12.77;;;;;;;15.34;100.00;100160.75;4994131;28;20112;-76
2023/07/05 01:43:57;;;;;;;17.77;12.30;;;;;;;15.34;100.00;100154.38;4992885;28;20030;-76
2023/07/05 01:46:26;;;;;;;18.33;12.10;;;;;;;15.36;100.00;100150.06;4992518;28;20117;-75
2023/07/05 01:49:11;;;;;;;18.65;12.30;;;;;;;15.38;100.00;100153.31;4993982;28;20109;-76
2023/07/05 01:51:59;;;;;;;18.45;11.70;;;;;;;15.34;100.00;100160.75;4983250;28;20052;-76
2023/07/05 01:54:30;;;;;;;17.50;11.80;;;;;;;15.35;100.00;100162.38;4994039;28;20030;-76
2023/07/05 01:57:05;;;;;;;18.95;12.15;;;;;;;15.35;100.00;100165.16;4992556;28;20382;-76
2023/07/05 01:59:43;;;;;;;17.70;12.10;;;;;;;15.32;100.00;100153.91;4993837;28;20034;-74
2023/07/05 02:02:12;;;;;;;17.25;11.45;;;;;;;15.31;100.00;100161.44;4993500;28;20128;-75
2023/07/05 02:04:38;;;;;;;19.17;11.65;;;;;;;15.30;100.00;100171.00;4999951;28;20382;-75
2023/07/05 02:07:07;;;;;;;17.83;12.00;;;;;;;15.23;100.00;100156.84;5013020;28;20026;-75
2023/07/05 02:09:37;;;;;;;17.08;11.45;;;;;;;15.23;100.00;100179.13;5007470;28;20364;-74
2023/07/05 02:12:04;;;;;;;17.05;11.45;;;;;;;15.19;100.00;100183.81;4993391;28;20202;-75
2023/07/05 02:14:29;;;;;;;18.20;11.77;;;;;;;15.21;100.00;100192.63;4993514;28;20614;-74
2023/07/05 02:16:55;;;;;;;17.27;11.23;;;;;;;15.21;100.00;100204.56;4993489;28;20050;-73
2023/07/05 02:19:20;;;;;;;18.00;11.05;;;;;;;15.17;100.00;100195.28;4992164;28;20486;-72
2023/07/05 02:21:46;;;;;;;19.00;11.70;;;;;;;15.23;100.00;100210.63;4993467;28;20058;-75
2023/07/05 02:24:11;;;;;;;17.10;11.45;;;;;;;15.21;100.00;100214.91;5008375;28;20117;-74
2023/07/05 02:26:37;;;;;;;17.27;11.23;;;;;;;15.24;100.00;100230.91;4993203;28;20035;-75
2023/07/05 02:29:02;;;;;;;18.08;11.48;;;;;;;15.19;100.00;100239.53;4993259;28;20033;-74
2023/07/05 02:31:29;;;;;;;17.45;11.20;;;;;;;15.13;100.00;100238.97;4993546;28;20050;-75
2023/07/05 02:33:54;;;;;;;15.73;10.85;;;;;;;15.00;100.00;100249.31;4993644;28;20044;-75
2023/07/05 02:36:20;;;;;;;15.88;11.05;;;;;;;14.92;100.00;100256.63;5010104;28;20025;-75
2023/07/05 02:38:45;;;;;;;15.23;10.32;;;;;;;14.82;100.00;100263.50;5011512;28;20037;-75
2023/07/05 02:41:10;;;;;;;15.88;10.70;;;;;;;14.70;100.00;100257.13;4995538;28;20118;-74
2023/07/05 02:43:36;;;;;;;17.27;10.85;;;;;;;14.57;100.00;100268.22;4993014;28;20039;-74
2023/07/05 02:46:02;;;;;;;17.45;10.85;;;;;;;14.51;100.00;100267.66;4992766;28;20040;-73
2023/07/05 02:48:27;;;;;;;15.23;10.52;;;;;;;14.41;100.00;100268.09;4993379;28;20065;-73
2023/07/05 02:50:52;;;;;;;17.33;10.82;;;;;;;14.40;100.00;100285.16;4991980;28;20057;-74
2023/07/05 02:53:18;;;;;;;16.77;11.00;;;;;;;14.41;100.00;100268.09;4992881;28;20399;-74
2023/07/05 02:55:43;;;;;;;15.43;10.77;;;;;;;14.24;100.00;100269.13;5005260;28;20026;-75
2023/07/05 02:58:09;;;;;;;16.77;10.98;;;;;;;14.20;100.00;100271.78;5012318;28;20426;-75
2023/07/05 03:00:34;;;;;;;17.65;10.90;;;;;;;14.06;100.00;100262.13;5012084;28;20025;-75
2023/07/05 03:03:00;;;;;;;16.60;10.73;;;;;;;14.01;100.00;100265.94;5012194;28;20026;-74
2023/07/05 03:05:25;;;;;;;15.80;10.43;;;;;;;14.04;100.00;100268.03;5011855;28;20090;-73
2023/07/05 03:07:50;;;;;;;18.85;11.15;;;;;;;13.87;100.00;100263.47;5012114;28;20057;-73
2023/07/05 03:10:16;;;;;;;18.80;11.40;;;;;;;13.78;100.00;100268.31;5004198;28;20038;-74
2023/07/05 03:12:41;;;;;;;16.83;11.25;;;;;;;13.73;100.00;100259.03;4992466;28;20096;-74
2023/07/05 03:15:07;;;;;;;19.50;11.95;;;;;;;13.61;100.00;100266.50;4992185;28;20038;-73
2023/07/05 03:17:33;;;;;;;18.55;11.80;;;;;;;13.51;100.00;100268.53;4990789;28;20125;-74
2023/07/05 03:19:59;;;;;;;18.60;11.68;;;;;;;13.46;100.00;100265.97;4997436;28;20034;-74
2023/07/05 03:22:28;;;;;;;18.55;11.55;;;;;;;13.46;100.00;100273.53;5011898;28;20021;-75
2023/07/05 03:24:54;;;;;;;18.23;12.50;;;;;;;13.36;100.00;100274.69;5011547;28;20026;-73
2023/07/05 03:27:20;;;;;;;18.27;12.27;;;;;;;13.42;100.00;100278.91;5011675;28;20033;-73
2023/07/05 03:29:46;;;;;;;18.15;11.90;;;;;;;13.36;100.00;100277.47;5011042;28;20060;-72
2023/07/05 03:32:11;;;;;;;19.55;11.93;;;;;;;13.40;100.00;100275.69;5011749;28;20093;-73
2023/07/05 03:34:37;;;;;;;17.73;12.05;;;;;;;13.33;100.00;100278.97;5010330;28;20045;-73
2023/07/05 03:37:02;;;;;;;17.25;11.57;;;;;;;13.31;100.00;100281.28;4990449;28;20034;-73
2023/07/05 03:39:29;;;;;;;17.38;11.85;;;;;;;13.33;100.00;100278.97;4990481;28;20026;-74
2023/07/05 03:41:54;;;;;;;19.52;11.80;;;;;;;13.29;100.00;100272.44;5011319;28;20038;-72
2023/07/05 03:44:22;;;;;;;20.00;12.23;;;;;;;13.29;100.00;100266.09;5010040;28;20026;-74
2023/07/05 03:46:48;;;;;;;18.50;12.30;;;;;;;13.36;100.00;100283.03;4991295;28;20031;-73
2023/07/05 03:49:14;;;;;;;17.67;12.30;;;;;;;13.36;100.00;100286.63;4991828;28;20439;-72
2023/07/05 03:51:39;;;;;;;19.10;12.48;;;;;;;13.36;100.00;100278.31;5007196;28;20160;-74
2023/07/05 03:54:05;;;;;;;19.80;12.32;;;;;;;13.39;100.00;100276.84;5011470;28;20049;-72
2023/07/05 03:56:30;;;;;;;19.90;12.02;;;;;;;13.36;100.00;100281.09;5011337;28;20474;-72
2023/07/05 03:58:55;;;;;;;19.33;12.07;;;;;;;13.36;100.00;100281.09;5009606;28;20121;-70
2023/07/05 04:01:26;;;;;;;20.02;12.20;;;;;;;13.33;100.00;100292.84;5010859;28;20418;-71
2023/07/05 04:03:54;;;;;;;18.65;12.07;;;;;;;13.31;100.00;100283.25;5014590;28;20116;-71
2023/07/05 04:06:20;;;;;;;21.45;12.40;;;;;;;13.30;100.00;100271.31;5014986;28;20036;-70
2023/07/05 04:08:46;;;;;;;19.38;11.32;;;;;;;13.28;100.00;100265.25;5013882;28;20573;-70
2023/07/05 04:11:12;;;;;;;18.73;10.95;;;;;;;13.31;100.00;100269.34;5001623;28;20030;-71
2023/07/05 04:13:38;;;;;;;18.38;11.38;;;;;;;13.27;100.00;100264.47;4995573;28;20313;-71
2023/07/05 04:16:17;;;;;;;18.67;11.00;;;;;;;13.30;100.00;100254.63;4995472;28;20041;-71
2023/07/05 04:18:44;;;;;;;19.05;10.73;;;;;;;13.35;100.00;100261.94;4996019;28;20165;-71
2023/07/05 04:21:10;;;;;;;17.63;10.85;;;;;;;13.46;100.00;100279.06;4995612;28;20034;-73
2023/07/05 04:23:36;;;;;;;18.75;11.82;;;;;;;13.41;100.00;100268.97;4995465;28;20161;-73
2023/07/05 04:26:09;;;;;;;18.17;10.93;;;;;;;13.40;100.00;100282.03;4995000;28;20117;-72
2023/07/05 04:28:36;;;;;;;19.65;11.30;;;;;;;13.37;100.00;100279.09;4995227;28;20066;-73
2023/07/05 04:31:02;;;;;;;19.83;11.60;;;;;;;13.40;100.00;100281.25;5004815;28;20046;-72
2023/07/05 04:33:28;;;;;;;18.95;11.15;;;;;;;13.47;100.00;100275.94;5014761;28;20030;-72
2023/07/05 04:35:57;;;;;;;20.98;11.23;;;;;;;13.43;100.00;100269.44;5014503;28;20034;-73
2023/07/05 04:38:23;;;;;;;19.15;11.77;;;;;;;13.51;100.00;100287.19;5014709;28;20540;-72
2023/07/05 04:40:48;;;;;;;19.92;11.20;;;;;;;13.50;100.00;100274.44;5007127;28;20034;-72
2023/07/05 04:43:14;;;;;;;19.10;11.40;;;;;;;13.59;100.00;100279.94;4994727;28;20068;-71
2023/07/05 04:45:40;;;;;;;18.33;10.70;;;;;;;13.63;100.00;100276.13;4994922;28;20065;-72
2023/07/05 04:48:06;;;;;;;19.40;10.40;;;;;;;13.61;100.00;100281.22;4995027;28;20035;-71
2023/07/05 04:50:31;;;;;;;17.88;10.85;;;;;;;13.62;100.00;100271.72;4995135;28;20066;-71
2023/07/05 04:52:56;;;;;;;19.52;10.88;;;;;;;13.69;99.03;100285.88;4994591;28;20478;-71
2023/07/05 04:55:22;;;;;;;19.30;10.95;;;;;;;13.71;99.18;100289.13;4993399;28;20045;-72
2023/07/05 04:57:47;;;;;;;19.85;11.23;;;;;;;13.75;98.36;100280.09;4993290;28;20034;-72
2023/07/05 05:00:13;;;;;;;20.30;11.43;;;;;;;13.75;97.62;100280.94;4993159;28;20038;-71
2023/07/05 05:02:40;;;;;;;19.70;10.82;;;;;;;13.86;96.83;100275.75;4993093;28;20030;-69
2023/07/05 05:05:06;;;;;;;20.60;11.27;;;;;;;13.83;97.58;100273.66;4994796;28;20049;-68
2023/07/05 05:07:32;;;;;;;19.17;11.80;;;;;;;13.80;96.83;100283.47;4994479;28;20181;-71
2023/07/05 05:09:59;;;;;;;18.27;10.77;;;;;;;13.80;96.08;100266.00;4994707;28;20213;-71
2023/07/05 05:12:25;;;;;;;19.23;11.10;;;;;;;13.73;96.81;100261.81;4994481;28;20022;-71
2023/07/05 05:14:50;;;;;;;17.85;10.93;;;;;;;13.84;96.35;100287.22;4993644;28;20034;-71
2023/07/05 05:17:16;;;;;;;19.20;11.13;;;;;;;13.93;95.50;100287.16;5011760;28;20049;-71
2023/07/05 05:19:41;;;;;;;19.05;11.57;;;;;;;13.95;95.59;100287.59;5014073;28;20021;-71
2023/07/05 05:22:08;;;;;;;18.40;11.02;;;;;;;13.91;94.76;100285.84;5013622;28;20042;-71
2023/07/05 05:24:33;;;;;;;19.52;10.90;;;;;;;13.84;95.68;100295.56;5013990;28;20037;-71
2023/07/05 05:26:59;;;;;;;18.52;11.18;;;;;;;13.83;94.72;100277.25;4997851;28;20022;-71
2023/07/05 05:29:24;;;;;;;18.70;11.02;;;;;;;13.82;94.27;100289.53;4993857;28;20122;-70
2023/07/05 05:31:49;;;;;;;19.20;10.90;;;;;;;13.82;94.47;100289.53;4994321;28;20022;-71
2023/07/05 05:34:16;;;;;;;17.55;10.43;;;;;;;13.72;94.54;100276.03;4993960;28;20060;-70
2023/07/05 05:36:41;;;;;;;17.75;10.07;;;;;;;13.78;93.87;100287.75;4992692;28;20038;-72
2023/07/05 05:39:07;;;;;;;18.60;10.05;;;;;;;13.77;94.18;100297.25;4993976;28;20073;-71
2023/07/05 05:41:33;;;;;;;20.20;11.05;;;;;;;13.82;94.29;100283.16;5003771;28;20367;-72
2023/07/05 05:43:58;;;;;;;19.00;11.40;;;;;;;13.73;94.62;100289.63;5013425;28;20546;-72
2023/07/05 05:46:23;;;;;;;19.83;11.63;;;;;;;13.72;94.65;100292.72;5013160;28;20026;-71
2023/07/05 05:48:49;;;;;;;19.77;10.65;;;;;;;13.68;94.59;100295.38;5013356;28;20032;-71
2023/07/05 05:51:14;;;;;;;18.75;10.95;;;;;;;13.67;94.79;100290.97;5004473;28;20478;-71
2023/07/05 05:53:40;;;;;;;20.05;11.05;;;;;;;13.65;94.42;100298.81;4993734;28;20037;-72
2023/07/05 05:56:05;;;;;;;19.60;11.18;;;;;;;13.70;94.82;100303.38;4993374;28;20038;-73
2023/07/05 05:58:30;;;;;;;17.67;10.88;;;;;;;13.80;94.07;100311.28;4993473;28;20077;-72
2023/07/05 06:01:00;;;;;;;17.83;10.55;;;;;;;13.78;94.15;100305.28;4997604;28;20034;-72
2023/07/05 06:03:26;;;;;;;18.40;10.60;;;;;;;13.75;94.15;100297.59;5013654;28;20022;-71
2023/07/05 06:05:53;;;;;;;18.65;10.38;;;;;;;13.75;94.67;100314.28;5012811;28;20481;-72
2023/07/05 06:08:19;;;;;;;18.60;10.75;;;;;;;13.60;95.62;100317.69;5012853;28;20034;-71
2023/07/05 06:10:46;;;;;;;18.50;11.00;;;;;;;13.60;95.80;100317.69;5012566;28;20022;-71
2023/07/05 06:13:12;;;;;;;17.73;10.50;;;;;;;13.62;94.34;100321.75;5013178;28;20088;-72
2023/07/05 06:15:37;;;;;;;18.80;11.00;;;;;;;13.69;95.17;100333.13;5012729;28;20042;-72
2023/07/05 06:18:02;;;;;;;19.38;10.90;;;;;;;13.66;95.46;100333.00;5011396;28;20026;-73
2023/07/05 06:20:33;;;;;;;18.02;10.65;;;;;;;13.69;94.88;100335.13;5012590;28;20029;-71
2023/07/05 06:22:58;;;;;;;20.95;10.93;;;;;;;13.67;95.18;100340.19;5012492;28;20398;-72
2023/07/05 06:25:24;;;;;;;17.30;10.38;;;;;;;13.62;97.07;100341.22;5012527;28;20022;-71
2023/07/05 06:27:49;;;;;;;18.42;10.88;;;;;;;13.66;97.08;100338.56;4994539;28;20105;-72
2023/07/05 06:30:15;;;;;;;18.48;11.13;;;;;;;13.59;97.88;100339.09;4993263;28;20093;-71
2023/07/05 06:32:40;;;;;;;19.27;11.40;;;;;;;13.62;98.62;100343.16;4992975;28;20043;-71
2023/07/05 06:35:06;;;;;;;18.67;11.02;;;;;;;13.77;96.48;100341.75;4991506;28;20120;-71
2023/07/05 06:37:31;;;;;;;19.73;10.93;;;;;;;13.90;95.20;100343.44;4992828;28;20169;-71
2023/07/05 06:39:57;;;;;;;18.17;11.10;;;;;;;14.03;94.70;100353.44;4992987;28;20037;-73
2023/07/05 06:42:22;;;;;;;17.90;10.45;;;;;;;14.13;92.36;100348.59;4992925;28;20034;-72
2023/07/05 06:44:47;;;;;;;17.50;10.65;;;;;;;14.29;91.56;100357.13;4992851;28;20022;-75
2023/07/05 06:47:13;;;;;;;17.02;10.60;;;;;;;14.35;90.81;100341.84;5003291;28;20041;-74
2023/07/05 06:49:38;;;;;;;16.60;10.35;;;;;;;14.56;87.67;100360.41;5012648;28;20054;-74
2023/07/05 06:52:06;;;;;;;17.10;10.40;;;;;;;14.67;87.26;100369.97;5012196;28;20045;-75
2023/07/05 06:54:31;;;;;;;15.80;10.00;;;;;;;14.78;86.98;100371.16;5012333;28;20057;-74
2023/07/05 06:56:56;;;;;;;18.63;10.93;;;;;;;14.81;84.79;100376.06;5011950;28;20061;-72
2023/07/05 06:59:22;;;;;;;17.27;10.63;;;;;;;14.85;83.63;100375.34;5011977;28;20675;-69
2023/07/05 07:01:47;;;;;;;18.17;10.30;;;;;;;14.93;84.61;100385.53;5003397;28;20034;-73
2023/07/05 07:04:12;;;;;;;17.33;10.95;;;;;;;14.92;83.88;100383.94;4991228;28;20040;-72
2023/07/05 07:06:38;;;;;;;18.15;9.70;;;;;;;14.86;82.69;100386.16;4984174;28;20786;-73
2023/07/05 07:09:05;;;;;;;15.70;9.90;;;;;;;14.80;82.95;100393.91;5010971;28;20105;-73
2023/07/05 07:11:32;;;;;;;17.33;10.15;;;;;;;14.90;82.26;100409.34;4997920;28;20514;-73
2023/07/05 07:13:57;;;;;;;16.65;9.80;;;;;;;14.97;81.71;100395.66;5010407;28;20042;-72
2023/07/05 07:16:22;;;;;;;17.67;9.88;;;;;;;14.96;81.49;100399.63;5006013;28;20029;-72
2023/07/05 07:18:49;;;;;;;17.48;9.77;;;;;;;14.89;80.79;100420.84;4991196;28;20437;-72
2023/07/05 07:21:18;;;;;;;18.85;10.05;;;;;;;14.71;83.17;100417.44;4993290;28;20502;-71
2023/07/05 07:23:46;;;;;;;18.23;9.80;;;;;;;14.60;84.21;100422.59;5010779;28;20148;-71
2023/07/05 07:26:16;;;;;;;15.70;9.77;;;;;;;14.59;84.92;100423.75;5010532;28;20104;-71
2023/07/05 07:28:45;;;;;;;15.23;9.80;;;;;;;14.56;84.99;100424.44;5010055;28;20061;-72
2023/07/05 07:31:18;;;;;;;18.20;10.02;;;;;;;14.58;83.55;100414.59;5010092;28;20042;-72
2023/07/05 07:33:47;;;;;;;14.68;9.43;;;;;;;14.82;82.56;100436.16;4991506;28;20036;-71
2023/07/05 07:36:16;;;;;;;16.70;10.30;;;;;;;14.95;82.29;100447.28;4989791;28;20065;-71
2023/07/05 07:38:41;;;;;;;17.40;9.63;;;;;;;14.99;83.29;100459.38;4990767;28;20110;-72
2023/07/05 07:41:30;;;;;;;16.70;9.85;;;;;;;14.84;86.27;100466.44;4989839;28;20031;-69
2023/07/05 07:44:00;;;;;;;19.40;10.40;;;;;;;14.60;89.14;100492.19;4990802;28;20505;-71
2023/07/05 07:46:28;;;;;;;16.77;10.15;;;;;;;14.35;91.32;100476.22;4991640;28;20093;-70
2023/07/05 07:48:55;;;;;;;17.27;10.15;;;;;;;14.24;91.51;100493.66;5010153;28;20030;-71
2023/07/05 07:51:24;;;;;;;16.05;10.25;;;;;;;14.16;93.27;100498.13;5009955;28;20060;-72
2023/07/05 07:53:50;;;;;;;17.40;10.80;;;;;;;14.16;93.32;100493.41;5009061;28;20032;-70
2023/07/05 07:56:19;;;;;;;17.00;10.73;;;;;;;14.27;94.42;100506.88;5009340;28;20041;-71
2023/07/05 07:58:48;;;;;;;18.70;11.40;;;;;;;14.32;94.30;100476.09;4989241;28;20502;-70
2023/07/05 08:01:14;;;;;;;18.75;11.95;;;;;;;14.46;93.73;100487.72;4990903;28;20073;-71
2023/07/05 08:03:40;;;;;;;17.55;11.40;;;;;;;14.49;91.96;100498.19;4972050;28;20039;-70
2023/07/05 08:06:06;;;;;;;18.60;10.60;;;;;;;14.56;93.46;100499.59;4970761;28;20046;-71
2023/07/05 08:08:34;;;;;;;17.75;10.70;;;;;;;14.58;94.66;100512.03;5007428;28;20040;-71
2023/07/05 08:11:02;;;;;;;18.10;11.50;;;;;;;14.59;94.29;100494.19;5010263;28;20179;-70
2023/07/05 08:13:28;;;;;;;18.10;11.45;;;;;;;14.61;95.81;100510.53;5010185;28;20044;-72
2023/07/05 08:15:53;;;;;;;19.02;12.02;;;;;;;14.65;96.32;100517.84;5010209;28;20462;-70
2023/07/05 08:18:18;;;;;;;18.75;11.38;;;;;;;14.72;96.05;100514.56;5008985;28;20049;-70
2023/07/05 08:20:44;;;;;;;18.23;11.57;;;;;;;14.72;92.81;100519.28;5010228;28;20382;-71
2023/07/05 08:23:09;;;;;;;18.70;11.75;;;;;;;14.59;93.37;100508.09;5010362;28;20048;-72
2023/07/05 08:25:37;;;;;;;19.05;11.38;;;;;;;14.54;93.45;100516.66;5008583;28;20037;-71
2023/07/05 08:28:02;;;;;;;17.45;11.02;;;;;;;14.59;93.75;100522.00;5009670;28;20045;-71
2023/07/05 08:30:27;;;;;;;18.52;11.80;;;;;;;14.79;92.86;100534.28;5010008;28;20050;-70
2023/07/05 08:32:53;;;;;;;18.63;11.35;;;;;;;14.96;90.60;100533.31;5010242;28;20026;-71
2023/07/05 08:35:18;;;;;;;18.13;10.88;;;;;;;15.03;89.11;100545.84;5010778;28;20037;-73
2023/07/05 08:37:48;;;;;;;18.40;11.32;;;;;;;15.06;90.04;100539.59;5010875;28;20038;-76
2023/07/05 08:40:17;;;;;;;18.70;11.35;;;;;;;15.12;90.46;100525.09;5010752;28;20069;-75
2023/07/05 08:42:54;;;;;;;17.95;11.55;;;;;;;15.43;89.54;100531.31;5009014;28;20030;-73
2023/07/05 08:45:28;;;;;;;18.77;10.93;;;;;;;15.74;86.51;100555.00;5010220;28;20126;-73
2023/07/05 08:48:01;;;;;;;20.58;11.95;;;;;;;15.85;84.82;100563.75;5010743;28;20752;-72
2023/07/05 08:50:34;;;;;;;19.20;11.85;;;;;;;15.86;84.32;100557.03;5010106;28;20478;-73
2023/07/05 08:53:20;;;;;;;21.75;11.68;;;;;;;15.93;85.19;100565.63;5012272;28;20122;-72
2023/07/05 08:55:58;;;;;;;19.65;11.88;;;;;;;15.84;85.93;100568.50;5013892;28;20437;-73
2023/07/05 08:58:26;;;;;;;18.95;11.90;;;;;;;15.92;84.16;100577.94;5013925;28;20092;-73
2023/07/05 09:01:04;;;;;;;18.65;10.82;;;;;;;16.20;82.33;100577.22;5013846;28;20132;-73
2023/07/05 09:03:30;;;;;;;20.65;11.27;;;;;;;16.44;81.26;100581.09;5014628;28;20509;-74
2023/07/05 09:05:55;;;;;;;18.85;11.63;;;;;;;16.45;81.46;100589.16;5014750;28;20466;-73
2023/07/05 09:08:42;;;;;;;18.30;11.05;;;;;;;16.60;82.01;100586.75;5015089;28;20040;-73
2023/07/05 09:11:17;;;;;;;19.27;10.68;;;;;;;16.75;80.53;100610.34;5014563;28;20088;-73
2023/07/05 09:13:42;;;;;;;19.80;11.73;;;;;;;16.72;78.40;100600.69;5015392;28;20030;-75
2023/07/05 09:16:49;;;;;;;19.80;11.38;;;;;;;16.69;79.25;100609.78;5014807;28;20379;-74
2023/07/05 09:19:40;;;;;;;19.08;11.32;;;;;;;16.83;78.20;100617.75;4960909;28;20070;-73
2023/07/05 09:22:11;;;;;;;17.92;10.25;;;;;;;17.08;75.98;100610.13;4987065;28;20050;-73
2023/07/05 09:24:39;;;;;;;17.13;10.65;;;;;;;17.18;74.31;100617.19;5014462;28;20480;-75
2023/07/05 09:27:07;;;;;;;19.42;11.25;;;;;;;17.06;74.23;100634.81;5014372;28;20030;-71
2023/07/05 09:29:42;;;;;;;18.42;10.15;;;;;;;16.99;76.55;100620.66;5014331;28;20053;-73
2023/07/05 09:32:14;;;;;;;20.30;11.00;;;;;;;16.96;73.51;100629.72;5016357;28;20088;-71
2023/07/05 09:34:45;;;;;;;20.15;11.00;;;;;;;16.81;75.39;100622.91;5017755;28;20486;-71
2023/07/05 09:37:32;;;;;;;19.73;11.20;;;;;;;16.76;76.38;100654.72;5017546;28;20088;-72
2023/07/05 09:40:25;;;;;;;18.02;10.85;;;;;;;16.61;74.62;100647.03;5017396;28;20038;-72
2023/07/05 09:43:29;;;;;;;18.38;10.60;;;;;;;16.71;73.94;100684.84;5018609;28;20037;-70
2023/07/05 09:45:55;;;;;;;;;;;;;;;17.07;72.05;100667.19;4995009;28;20129;-71
2023/07/05 09:48:21;;;;;;;17.85;10.32;;;;;;;17.32;70.28;100667.09;4993960;28;20004;-69
2023/07/05 09:50:50;;;;;;;21.98;11.00;;;;;;;17.36;70.39;100681.97;5005182;28;20038;-71
2023/07/05 09:53:43;;;;;;;18.23;10.60;;;;;;;17.37;70.07;100680.81;5017477;28;20061;-68
2023/07/05 09:56:18;;;;;;;17.10;9.82;;;;;;;17.24;67.83;100670.88;5017154;28;20040;-69
2023/07/05 09:58:44;;;;;;;17.67;10.15;;;;;;;17.30;67.96;100691.81;5017006;28;20034;-70
2023/07/05 10:01:17;;;;;;;15.88;9.93;;;;;;;17.41;67.77;100687.34;5015256;28;20033;-69
2023/07/05 10:03:54;;;;;;;14.82;9.07;;;;;;;17.71;66.02;100683.31;5014496;28;20450;-69
2023/07/05 10:06:24;;;;;;;16.27;9.82;;;;;;;17.72;64.26;100694.13;5014217;28;20076;-70
2023/07/05 10:08:51;;;;;;;15.32;9.30;;;;;;;17.85;62.01;100697.69;5014968;28;20029;-69
2023/07/05 10:11:26;;;;;;;14.80;9.13;;;;;;;17.95;63.77;100704.72;5014177;28;20389;-70
2023/07/05 10:14:12;;;;;;;19.42;9.38;;;;;;;18.01;63.21;100716.50;5013839;28;20041;-71
2023/07/05 10:16:56;;;;;;;14.15;8.35;;;;;;;17.91;61.87;100721.44;5013744;28;20044;-70
2023/07/05 10:19:24;;;;;;;;;;;;;;;17.94;61.49;100722.69;5013623;28;20149;-69
2023/07/05 10:21:57;;;;;;;16.48;8.60;;;;;;;17.76;60.96;100734.22;5012734;28;19956;-70
2023/07/05 10:24:24;;;;;;;17.80;8.88;;;;;;;17.88;61.30;100733.34;5012327;28;20026;-70
2023/07/05 10:26:51;;;;;;;15.52;8.43;;;;;;;18.05;62.04;100740.63;5013381;28;20338;-71
2023/07/05 10:29:21;;;;;;;15.52;8.70;;;;;;;18.14;60.38;100737.63;5012640;28;20026;-70
2023/07/05 10:31:52;;;;;;;16.60;8.63;;;;;;;18.09;58.91;100746.31;5012569;28;20041;-69
2023/07/05 10:34:22;;;;;;;15.98;8.98;;;;;;;18.26;58.36;100761.13;5013113;28;20116;-71
2023/07/05 10:36:48;;;;;;;14.73;8.27;;;;;;;18.44;57.45;100744.78;5012417;28;20134;-69
2023/07/05 10:39:22;;;;;;;19.10;9.13;;;;;;;18.61;56.98;100757.59;5010426;28;20037;-69
2023/07/05 10:41:50;;;;;;;18.10;8.40;;;;;;;18.61;55.04;100761.19;5012190;28;20058;-69
2023/07/05 10:44:24;;;;;;;14.35;9.13;;;;;;;18.61;55.37;100760.38;5010670;28;20398;-69
2023/07/05 10:46:50;;;;;;;14.52;8.60;;;;;;;18.78;55.79;100771.22;5010106;28;20103;-70
2023/07/05 10:49:19;;;;;;;15.52;8.25;;;;;;;18.94;55.40;100773.19;4996824;28;20038;-70
2023/07/05 10:51:52;;;;;;;13.93;8.80;;;;;;;18.97;54.66;100775.28;4973167;28;20050;-71
2023/07/05 10:54:30;;;;;;;17.73;8.63;;;;;;;18.95;53.51;100792.44;4972797;28;20058;-71
2023/07/05 10:56:57;;;;;;;13.30;7.70;;;;;;;18.91;55.03;100785.91;4972509;28;20066;-70
2023/07/05 10:59:36;;;;;;;12.85;7.25;;;;;;;18.99;53.76;100798.94;4974780;28;20041;-70
2023/07/05 11:02:15;;;;;;;13.07;7.80;;;;;;;19.10;52.66;100767.53;4990029;28;20142;-70
2023/07/05 11:04:44;;;;;;;13.93;8.75;;;;;;;19.09;52.57;100797.56;4991860;28;20087;-69
2023/07/05 11:07:12;;;;;;;15.98;8.50;;;;;;;18.89;52.16;100809.88;5003144;28;20030;-70
2023/07/05 11:09:38;;;;;;;15.43;8.45;;;;;;;18.90;53.68;100815.13;5011388;28;20099;-73
2023/07/05 11:12:16;;;;;;;19.42;8.60;;;;;;;19.11;53.60;100794.41;5010700;28;20520;-71
2023/07/05 11:14:42;;;;;;;14.30;8.07;;;;;;;19.13;50.95;100825.66;5011792;28;20034;-73